createdAt,value
2023-04-25T00:01:39.074Z,8.70
2023-04-25T00:04:06.397Z,8.70
2023-04-25T00:06:36.420Z,8.70
2023-04-25T00:09:10.356Z,8.80
2023-04-25T00:11:37.970Z,8.80
2023-04-25T00:14:05.182Z,8.80
2023-04-25T00:16:35.702Z,8.70
2023-04-25T00:19:03.226Z,8.70
2023-04-25T00:21:31.818Z,8.70
2023-04-25T00:24:01.221Z,8.70
2023-04-25T00:29:11.619Z,8.60
2023-04-25T00:31:48.750Z,8.70
2023-04-25T00:39:46.701Z,8.70
2023-04-25T00:42:13.996Z,8.70
2023-04-25T00:44:41.617Z,8.70
2023-04-25T00:47:09.035Z,8.70
2023-04-25T00:49:35.759Z,8.70
2023-04-25T00:52:04.499Z,8.70
2023-04-25T00:54:43.599Z,8.70
2023-04-25T00:57:14.470Z,8.70
2023-04-25T00:59:49.012Z,8.70
2023-04-25T01:02:16.070Z,8.80
2023-04-25T01:04:43.680Z,8.80
2023-04-25T01:07:11.173Z,8.80
2023-04-25T01:09:41.368Z,8.80
2023-04-25T01:12:34.741Z,8.80
2023-04-25T01:15:04.607Z,8.80
2023-04-25T01:17:34.418Z,8.80
2023-04-25T01:20:09.795Z,8.80
2023-04-25T01:22:37.298Z,8.80
2023-04-25T01:25:04.791Z,8.80
2023-04-25T01:27:35.339Z,8.80
2023-04-25T01:30:03.585Z,8.80
2023-04-25T01:32:38.420Z,8.80
2023-04-25T01:35:12.604Z,8.80
2023-04-25T01:37:40.707Z,8.80
2023-04-25T01:40:10.268Z,8.80
2023-04-25T01:42:40.222Z,8.80
2023-04-25T01:45:08.784Z,8.80
2023-04-25T01:47:35.513Z,8.80
2023-04-25T01:50:03.580Z,8.80
2023-04-25T01:52:31.609Z,8.80
2023-04-25T01:55:05.661Z,8.80
2023-04-25T01:57:34.704Z,8.90
2023-04-25T02:00:04.552Z,8.90
2023-04-25T02:02:40.911Z,8.90
2023-04-25T02:08:27.046Z,8.90
2023-04-25T02:10:55.462Z,8.90
2023-04-25T02:13:27.171Z,8.90
2023-04-25T02:16:07.085Z,8.90
2023-04-25T02:18:33.841Z,8.90
2023-04-25T02:21:01.409Z,8.90
2023-04-25T02:23:29.013Z,8.90
2023-04-25T02:25:58.423Z,8.90
2023-04-25T02:28:33.215Z,8.90
2023-04-25T02:30:59.841Z,8.90
2023-04-25T02:33:26.479Z,8.90
2023-04-25T02:35:54.334Z,8.90
2023-04-25T02:38:22.355Z,8.90
2023-04-25T02:40:48.961Z,8.90
2023-04-25T02:43:16.384Z,8.90
2023-04-25T02:45:59.676Z,8.90
2023-04-25T02:48:30.318Z,8.90
2023-04-25T02:54:16.441Z,8.80
2023-04-25T02:56:47.393Z,8.80
2023-04-25T03:02:43.374Z,8.70
2023-04-25T03:05:10.137Z,8.70
2023-04-25T03:07:40.140Z,8.60
2023-04-25T03:10:39.291Z,8.60
2023-04-25T03:13:18.958Z,8.50
2023-04-25T03:15:49.034Z,8.50
2023-04-25T03:18:15.722Z,8.50
2023-04-25T03:20:54.974Z,8.50
2023-04-25T03:26:16.967Z,8.40
2023-04-25T03:31:55.336Z,8.30
2023-04-25T03:34:22.325Z,8.30
2023-04-25T03:37:16.426Z,8.30
2023-04-25T03:42:53.806Z,8.20
2023-04-25T03:45:20.578Z,8.30
2023-04-25T03:47:47.537Z,8.30
2023-04-25T03:50:31.503Z,8.30
2023-04-25T03:53:03.001Z,8.30
2023-04-25T03:56:04.417Z,8.30
2023-04-25T03:58:34.788Z,8.40
2023-04-25T04:04:28.945Z,8.40
2023-04-25T04:12:43.055Z,8.40
2023-04-25T04:15:10.211Z,8.30
2023-04-25T04:23:39.760Z,8.20
2023-04-25T04:26:18.752Z,8.20
2023-04-25T04:29:21.358Z,8.20
2023-04-25T04:31:58.869Z,8.20
2023-04-25T04:34:27.310Z,8.30
2023-04-25T04:40:20.885Z,8.40
2023-04-25T04:43:00.051Z,8.40
2023-04-25T04:45:46.656Z,8.50
2023-04-25T04:48:36.340Z,8.50
2023-04-25T04:51:59.073Z,8.60
2023-04-25T04:54:52.664Z,8.60
2023-04-25T05:00:46.720Z,8.70
2023-04-25T05:03:33.366Z,8.70
2023-04-25T05:06:19.847Z,8.70
2023-04-25T05:09:13.596Z,8.70
2023-04-25T05:11:55.422Z,8.70
2023-04-25T05:14:32.119Z,8.70
2023-04-25T05:17:16.806Z,8.70
2023-04-25T05:20:02.095Z,8.80
2023-04-25T05:22:54.597Z,8.80
2023-04-25T05:26:06.412Z,8.90
2023-04-25T05:28:43.547Z,8.90
2023-04-25T05:38:04.325Z,8.80
2023-04-25T05:40:54.430Z,8.80
2023-04-25T05:46:30.024Z,8.80
2023-04-25T05:49:29.044Z,8.90
2023-04-25T05:52:01.769Z,8.90
2023-04-25T06:00:28.282Z,9.10
2023-04-25T06:02:56.312Z,9.10
2023-04-25T06:05:26.277Z,9.20
2023-04-25T06:07:53.106Z,9.20
2023-04-25T06:10:22.982Z,9.30
2023-04-25T06:12:49.762Z,9.30
2023-04-25T06:17:49.570Z,9.30
2023-04-25T06:20:16.518Z,9.30
2023-04-25T06:22:45.544Z,9.30
2023-04-25T06:25:21.553Z,9.30
2023-04-25T06:27:48.340Z,9.30
2023-04-25T06:30:22.477Z,9.30
2023-04-25T06:32:50.634Z,9.30
2023-04-25T06:35:17.473Z,9.30
2023-04-25T06:37:44.879Z,9.20
2023-04-25T06:40:15.297Z,9.20
2023-04-25T06:42:48.119Z,9.20
2023-04-25T06:45:49.854Z,9.10
2023-04-25T06:48:17.168Z,9.20
2023-04-25T06:50:47.184Z,9.20
2023-04-25T06:53:21.474Z,9.20
2023-04-25T06:55:59.713Z,9.30
2023-04-25T06:58:37.903Z,9.30
2023-04-25T07:01:23.568Z,9.30
2023-04-25T07:03:52.772Z,9.30
2023-04-25T07:06:20.354Z,9.30
2023-04-25T07:08:47.208Z,9.40
2023-04-25T07:11:15.208Z,9.40
2023-04-25T07:13:43.424Z,9.40
2023-04-25T07:16:12.603Z,9.40
2023-04-25T07:18:42.333Z,9.50
2023-04-25T07:21:13.066Z,9.50
2023-04-25T07:23:42.092Z,9.60
2023-04-25T07:26:17.427Z,9.60
2023-04-25T07:29:31.216Z,9.70
2023-04-25T07:32:04.340Z,9.60
2023-04-25T07:34:32.822Z,9.60
2023-04-25T07:37:06.426Z,9.60
2023-04-25T07:39:42.262Z,9.60
2023-04-25T07:42:10.082Z,9.60
2023-04-25T07:44:45.233Z,9.50
2023-04-25T07:47:19.835Z,9.50
2023-04-25T07:49:50.447Z,9.50
2023-04-25T07:52:17.276Z,9.60
2023-04-25T07:54:52.374Z,9.60
2023-04-25T07:57:28.903Z,9.50
2023-04-25T08:00:00.201Z,9.40
2023-04-25T08:02:32.573Z,9.30
2023-04-25T08:04:59.638Z,9.10
2023-04-25T08:07:29.898Z,9.10
2023-04-25T08:10:01.878Z,9.10
2023-04-25T08:12:33.431Z,9.20
2023-04-25T08:15:05.642Z,9.20
2023-04-25T08:17:35.966Z,9.20
2023-04-25T08:20:05.985Z,9.10
2023-04-25T08:25:23.559Z,9.10
2023-04-25T08:27:50.340Z,9.10
2023-04-25T08:30:24.996Z,9.10
2023-04-25T08:35:49.975Z,9.20
2023-04-25T08:38:18.648Z,9.30
2023-04-25T08:40:51.737Z,9.30
2023-04-25T08:43:25.418Z,9.30
2023-04-25T08:45:54.508Z,9.30
2023-04-25T08:48:42.849Z,9.30
2023-04-25T08:53:46.229Z,9.30
2023-04-25T08:56:18.143Z,9.30
2023-04-25T08:58:51.716Z,9.30
2023-04-25T09:01:19.701Z,9.40
2023-04-25T09:04:03.734Z,9.50
2023-04-25T09:06:32.117Z,9.40
2023-04-25T09:09:12.301Z,9.50
2023-04-25T09:11:38.963Z,9.50
2023-04-25T09:14:15.471Z,9.50
2023-04-25T09:17:11.308Z,9.60
2023-04-25T09:19:47.990Z,9.70
2023-04-25T09:22:23.044Z,9.70
2023-04-25T09:24:51.427Z,9.60
2023-04-25T09:27:23.222Z,9.40
2023-04-25T09:30:02.176Z,9.20
2023-04-25T09:32:45.068Z,9.10
2023-04-25T09:35:28.193Z,9.00
2023-04-25T09:38:22.243Z,8.90
2023-04-25T09:41:01.457Z,8.60
2023-04-25T09:44:04.948Z,8.50
2023-04-25T09:46:38.750Z,8.50
2023-04-25T09:49:15.562Z,8.60
2023-04-25T09:52:01.004Z,8.50
2023-04-25T09:54:34.583Z,8.50
2023-04-25T09:57:32.753Z,8.50
2023-04-25T10:00:01.240Z,8.60
2023-04-25T10:02:46.735Z,8.50
2023-04-25T10:05:32.464Z,8.50
2023-04-25T10:08:04.368Z,8.60
2023-04-25T10:10:38.756Z,8.60
2023-04-25T10:13:07.110Z,8.70
2023-04-25T10:16:05.269Z,8.70
2023-04-25T10:18:34.234Z,8.60
2023-04-25T10:21:03.428Z,8.50
2023-04-25T10:23:31.598Z,8.40
2023-04-25T10:25:59.169Z,8.40
2023-04-25T10:28:26.079Z,8.40
2023-04-25T10:31:10.779Z,8.40
2023-04-25T10:33:42.278Z,8.30
2023-04-25T10:36:22.800Z,8.30
2023-04-25T10:38:54.495Z,8.30
2023-04-25T10:41:23.324Z,8.20
2023-04-25T10:44:01.552Z,8.30
2023-04-25T10:46:32.381Z,8.30
2023-04-25T10:49:04.665Z,8.30
2023-04-25T10:52:16.362Z,8.40
2023-04-25T10:54:53.966Z,8.40
2023-04-25T10:57:38.792Z,8.50
2023-04-25T11:00:08.892Z,8.60
2023-04-25T11:02:47.067Z,8.70
2023-04-25T11:05:29.360Z,8.80
2023-04-25T11:08:07.131Z,8.80
2023-04-25T11:10:41.345Z,8.80
2023-04-25T11:13:10.183Z,8.80
2023-04-25T11:15:38.724Z,8.80
2023-04-25T11:18:10.325Z,8.80
2023-04-25T11:20:43.723Z,8.80
2023-04-25T11:23:38.647Z,8.70
2023-04-25T11:26:45.940Z,8.70
2023-04-25T11:29:14.822Z,8.70
2023-04-25T11:31:45.932Z,8.70
2023-04-25T11:34:21.108Z,8.60
2023-04-25T11:36:48.209Z,8.60
2023-04-25T11:39:17.014Z,8.70
2023-04-25T11:44:41.223Z,8.70
2023-04-25T11:47:07.935Z,8.80
2023-04-25T11:49:35.982Z,8.80
2023-04-25T11:52:07.732Z,8.80
2023-04-25T11:54:37.973Z,8.90
2023-04-25T11:57:08.836Z,8.90
2023-04-25T11:59:49.945Z,9.00
2023-04-25T12:02:27.156Z,9.20
2023-04-25T12:04:54.334Z,9.30
2023-04-25T12:07:29.378Z,9.20
2023-04-25T12:10:05.803Z,9.20
2023-04-25T12:12:35.904Z,9.20
2023-04-25T12:15:19.988Z,9.10
2023-04-25T12:17:53.264Z,9.10
2023-04-25T12:20:26.543Z,9.20
2023-04-25T12:22:57.797Z,9.40
2023-04-25T12:25:42.258Z,9.50
2023-04-25T12:28:21.197Z,9.60
2023-04-25T12:30:59.741Z,9.60
2023-04-25T12:33:31.824Z,9.60
2023-04-25T12:36:10.628Z,9.50
2023-04-25T12:38:41.069Z,9.50
2023-04-25T12:41:11.862Z,9.40
2023-04-25T12:43:42.558Z,9.40
2023-04-25T12:46:36.546Z,9.50
2023-04-25T12:49:17.789Z,9.60
2023-04-25T12:51:47.834Z,9.70
2023-04-25T12:54:14.705Z,9.80
2023-04-25T12:56:44.423Z,9.90
2023-04-25T12:59:11.147Z,10.00
2023-04-25T13:01:45.724Z,10.10
2023-04-25T13:04:17.251Z,10.30
2023-04-25T13:06:44.265Z,10.40
2023-04-25T13:09:16.123Z,10.40
2023-04-25T13:11:48.139Z,10.50
2023-04-25T13:14:16.007Z,10.50
2023-04-25T13:16:46.236Z,10.60
2023-04-25T13:19:13.255Z,10.70
2023-04-25T13:21:57.418Z,10.60
2023-04-25T13:33:26.034Z,10.10
2023-04-25T13:35:56.613Z,10.00
2023-04-25T13:38:28.969Z,10.10
2023-04-25T13:40:55.751Z,10.20
2023-04-25T13:43:26.426Z,10.40
2023-04-25T13:45:57.029Z,10.50
2023-04-25T13:48:27.711Z,10.50
2023-04-25T13:50:54.493Z,10.60
2023-04-25T13:53:21.540Z,10.60
2023-04-25T13:55:54.007Z,10.70
2023-04-25T13:58:24.048Z,10.80
2023-04-25T14:00:50.764Z,10.80
2023-04-25T14:03:21.514Z,10.80
2023-04-25T14:05:51.547Z,10.90
2023-04-25T14:08:18.167Z,11.20
2023-04-25T14:10:45.924Z,11.50
2023-04-25T14:13:15.325Z,11.50
2023-04-25T14:15:51.785Z,11.70
2023-04-25T14:18:19.269Z,11.80
2023-04-25T14:20:47.549Z,12.00
2023-04-25T14:23:19.664Z,12.10
2023-04-25T14:25:48.512Z,12.00
2023-04-25T14:28:15.117Z,11.90
2023-04-25T14:30:51.778Z,11.90
2023-04-25T14:33:27.368Z,11.80
2023-04-25T14:35:57.644Z,11.80
2023-04-25T14:38:25.824Z,11.70
2023-04-25T14:40:54.339Z,11.70
2023-04-25T14:43:21.114Z,11.70
2023-04-25T14:45:47.792Z,11.60
2023-04-25T14:48:19.720Z,11.60
2023-04-25T14:50:46.848Z,11.80
2023-04-25T14:53:16.102Z,11.80
2023-04-25T14:55:51.261Z,12.00
2023-04-25T14:58:19.069Z,12.20
2023-04-25T15:00:47.180Z,12.30
2023-04-25T15:03:16.994Z,12.10
2023-04-25T15:05:48.101Z,12.10
2023-04-25T15:08:18.391Z,12.20
2023-04-25T15:10:50.820Z,12.20
2023-04-25T15:13:19.551Z,12.10
2023-04-25T15:15:54.346Z,12.10
2023-04-25T15:18:23.953Z,11.90
2023-04-25T15:20:55.119Z,11.80
2023-04-25T15:23:28.418Z,11.70
2023-04-25T15:26:00.208Z,11.70
2023-04-25T15:28:26.916Z,11.70
2023-04-25T15:31:01.006Z,11.70
2023-04-25T15:33:28.845Z,11.80
2023-04-25T15:35:56.089Z,11.90
2023-04-25T15:38:23.074Z,12.10
2023-04-25T15:40:49.895Z,12.20
2023-04-25T15:43:20.604Z,12.10
2023-04-25T15:45:51.163Z,12.00
2023-04-25T15:48:21.254Z,11.90
2023-04-25T15:50:48.560Z,11.90
2023-04-25T16:13:36.353Z,11.70
2023-04-25T16:16:03.127Z,11.50
2023-04-25T16:18:30.349Z,11.30
2023-04-25T16:20:59.555Z,11.00
2023-04-25T16:23:27.357Z,10.90
2023-04-25T16:25:55.424Z,10.80
2023-04-25T16:28:23.317Z,10.50
2023-04-25T16:30:50.581Z,10.40
2023-04-25T16:33:19.282Z,10.30
2023-04-25T16:35:52.158Z,10.10
2023-04-25T16:38:19.050Z,10.00
2023-04-25T16:40:45.666Z,10.00
2023-04-25T16:43:13.721Z,9.90
2023-04-25T16:48:39.151Z,9.80
2023-04-25T16:51:09.287Z,9.70
2023-04-25T16:54:01.507Z,9.60
2023-04-25T17:16:39.466Z,8.80
2023-04-25T17:19:08.646Z,8.90
2023-04-25T17:36:14.355Z,9.00
2023-04-25T17:38:41.313Z,9.00
2023-04-25T17:41:09.912Z,9.00
2023-04-25T17:43:36.556Z,9.00
2023-04-25T17:46:10.556Z,9.10
2023-04-25T17:51:34.495Z,9.10
2023-04-25T17:54:04.394Z,9.10
2023-04-25T17:56:34.799Z,9.00
2023-04-25T17:59:03.959Z,9.00
2023-04-25T18:01:30.775Z,9.10
2023-04-25T18:03:58.506Z,9.00
2023-04-25T18:06:27.489Z,9.00
2023-04-25T18:08:55.453Z,9.00
2023-04-25T18:11:22.908Z,9.00
2023-04-25T18:13:49.767Z,9.00
2023-04-25T18:16:16.703Z,9.10
2023-04-25T18:18:46.146Z,9.10
2023-04-25T18:21:15.112Z,9.10
2023-04-25T18:23:44.370Z,9.10
2023-04-25T18:26:15.589Z,9.10
2023-04-25T18:28:42.377Z,9.10
2023-04-25T18:31:13.237Z,9.10
2023-04-25T18:33:40.925Z,9.10
2023-04-25T18:45:03.197Z,8.50
2023-04-25T18:47:30.092Z,8.50
2023-04-25T18:49:56.713Z,8.50
2023-04-25T18:52:25.493Z,8.50
2023-04-25T18:54:52.929Z,8.50
2023-04-25T18:57:22.561Z,8.60
2023-04-25T18:59:51.709Z,8.60
2023-04-25T19:02:25.421Z,8.70
2023-04-25T19:04:56.688Z,8.70
2023-04-25T19:07:30.087Z,8.80
2023-04-25T19:09:56.913Z,8.90
2023-04-25T19:12:27.549Z,8.90
2023-04-25T19:17:55.215Z,8.90
2023-04-25T19:20:21.850Z,8.80
2023-04-25T19:22:53.908Z,8.70
2023-04-25T19:25:52.960Z,8.70
2023-04-25T19:28:22.360Z,8.60
2023-04-25T19:30:49.036Z,8.70
2023-04-25T19:33:18.921Z,8.70
2023-04-25T19:39:03.639Z,8.70
2023-04-25T19:41:35.248Z,8.80
2023-04-25T19:44:05.397Z,8.80
2023-04-25T19:46:33.164Z,8.80
2023-04-25T19:49:05.310Z,8.80
2023-04-25T19:51:59.417Z,8.80
2023-04-25T19:54:26.520Z,8.80
2023-04-25T19:59:47.381Z,8.80
2023-04-25T20:02:17.611Z,8.80
2023-04-25T20:07:37.769Z,8.80
2023-04-25T20:10:07.104Z,8.80
2023-04-25T20:12:36.989Z,8.80
2023-04-25T20:15:04.535Z,8.80
2023-04-25T20:17:31.348Z,8.80
2023-04-25T20:19:59.093Z,8.80
2023-04-25T20:22:35.463Z,8.80
2023-04-25T20:25:07.351Z,8.80
2023-04-25T20:27:37.672Z,8.80
2023-04-25T20:30:07.305Z,8.80
2023-04-25T20:32:35.104Z,8.80
2023-04-25T20:35:10.613Z,8.80
2023-04-25T20:37:40.666Z,8.70
2023-04-25T20:40:08.675Z,8.60
2023-04-25T20:42:35.615Z,8.60
2023-04-25T20:45:13.333Z,8.50
2023-04-25T20:47:43.805Z,8.50
2023-04-25T20:50:14.389Z,8.50
2023-04-25T20:52:42.516Z,8.50
2023-04-25T20:55:11.558Z,8.50
2023-04-25T20:57:52.687Z,8.50
2023-04-25T21:00:26.483Z,8.50
2023-04-25T21:02:53.823Z,8.50
2023-04-25T21:05:25.076Z,8.60
2023-04-25T21:10:56.032Z,8.50
2023-04-25T21:13:22.838Z,8.50
2023-04-25T21:15:50.996Z,8.50
2023-04-25T21:18:17.850Z,8.50
2023-04-25T21:20:47.612Z,8.50
2023-04-25T21:23:14.842Z,8.50
2023-04-25T21:25:44.646Z,8.50
2023-04-25T21:28:11.893Z,8.50
2023-04-25T21:30:38.600Z,8.60
2023-04-25T21:33:05.790Z,8.60
2023-04-25T21:35:36.263Z,8.60
2023-04-25T21:38:03.859Z,8.60
2023-04-25T21:43:17.265Z,8.60
2023-04-25T21:46:09.099Z,8.60
2023-04-25T21:48:32.768Z,8.50
2023-04-25T21:50:59.612Z,8.50
2023-04-25T21:53:28.361Z,8.50
2023-04-25T22:15:40.834Z,8.10
2023-04-25T22:18:07.889Z,8.10
2023-04-25T22:20:36.828Z,8.10
2023-04-25T22:23:05.687Z,8.10
2023-04-25T22:25:34.877Z,8.10
2023-04-25T22:28:03.731Z,8.20
2023-04-25T22:30:31.333Z,8.10
2023-04-25T22:32:59.793Z,8.10
2023-04-25T22:35:26.546Z,8.10
2023-04-25T22:37:54.196Z,8.10
2023-04-25T22:43:19.071Z,8.20
2023-04-25T22:45:46.318Z,8.10
2023-04-25T22:48:16.841Z,8.00
2023-04-25T22:50:44.756Z,8.00
2023-04-25T22:53:15.660Z,8.00
2023-04-25T22:55:46.251Z,7.90
2023-04-25T22:58:18.936Z,7.90
2023-04-25T23:00:45.494Z,7.90
2023-04-25T23:03:12.123Z,7.90
2023-04-25T23:05:38.964Z,7.80
2023-04-25T23:08:09.287Z,7.80
2023-04-25T23:10:36.770Z,7.80
2023-04-25T23:13:05.723Z,7.80
2023-04-25T23:15:37.753Z,7.70
2023-04-25T23:18:08.247Z,7.70
2023-04-25T23:20:35.347Z,7.60
2023-04-25T23:23:05.242Z,7.60
2023-04-25T23:25:45.831Z,7.60
2023-04-25T23:28:12.576Z,7.60
2023-04-25T23:30:42.509Z,7.60
2023-04-25T23:33:09.259Z,7.70
2023-04-25T23:35:38.866Z,7.70
2023-04-25T23:38:08.047Z,7.70
2023-04-25T23:46:48.505Z,7.60
2023-04-25T23:49:15.464Z,7.60
2023-04-25T23:51:42.293Z,7.50
2023-04-25T23:54:12.827Z,7.50
2023-04-25T23:56:48.827Z,7.50
2023-04-25T23:59:15.575Z,7.40
